Terminal Aerodrome Forecast
Issued by NWS

Home | Current Version | Previous Version | Text Only | Print | Product List | Glossary Off
Versions: 1 2 3 4 5 6 7 8 9 10 11 12 13 14 15 16

000
FTUS43 KMPX 191700
TAFAXN
TAF
KAXN 191737Z 1918/2018 16010KT 1SM BR OVC003
     FM192200 16009KT 3SM BR OVC007
     FM200400 17008KT 1SM BR OVC002=

USA.gov is the U.S. government's official web portal to all federal, state and local government web resources and services.